Disclaimer

Please do not use the information listed here in-flight or in-navigation, as they are not provided to us by the airports but are provided by volunteers, so they might be outdated.

Search


Regions


Airport information page

Radio informations:
LUMBADZI TWR - 118.7 MHz
RADAR - 124.7 MHz
Approach (APP) - 128.0 MHz

Airport informations:
Latitude: 13° 47' 21.76" S
Longitude: 033° 46' 51.60" E
Elevation: 4035 feet - 1230 meters
Operating hours: Remarks
Operating agency: Civil government, landing fees and diplomatic clearance may be required
Timezone: UTC+2
Fuel: Jet A1, without icing nhibitor.

Runway information:
14/32 - 11614 x 148 feet< - >3540 x 45 meters

Recent METARs:
FWKI 161000Z 07012KT 9999 FEW030CB BKN032 24/18 Q1020 NOSIG
FWKI 161000Z 07012KT 9999 FEW030CB BKN032 24/18 Q1020 NOSIG
FWKI 161000Z 07012KT 9999 FEW030CB BKN032 24/18 Q1020 NOSIG

Airport on the map: